createdAt,value
2023-04-03T07:50:21.794Z,4.15
2023-04-03T07:51:23.293Z,4.24
2023-04-03T07:52:25.126Z,4.28
2023-04-03T07:53:26.567Z,4.60
2023-04-03T07:54:28.060Z,4.61
2023-04-03T07:56:18.038Z,4.67
2023-04-03T07:57:19.414Z,4.77
2023-04-03T07:58:24.028Z,5.18
2023-04-03T07:59:25.778Z,5.37
2023-04-03T08:00:27.337Z,5.12
2023-04-03T08:01:28.839Z,5.29
2023-04-03T08:22:59.431Z,4.74
2023-04-03T08:24:00.812Z,5.10
2023-04-03T08:25:02.767Z,5.03
2023-04-03T08:26:12.089Z,5.46
2023-04-03T08:27:13.670Z,5.48
2023-04-03T08:28:15.342Z,5.80
2023-04-03T08:29:17.176Z,5.79
2023-04-03T08:30:18.653Z,5.99
2023-04-03T08:31:20.979Z,6.08
2023-04-03T08:32:23.276Z,6.58
2023-04-03T08:33:24.667Z,6.59
2023-04-03T08:34:26.096Z,6.91
2023-04-03T08:35:27.480Z,7.18
2023-04-03T08:36:30.578Z,7.21
2023-04-03T08:37:32.526Z,6.95
2023-04-03T08:49:41.290Z,5.30
2023-04-03T08:50:52.903Z,5.96
2023-04-03T08:51:57.282Z,6.41
2023-04-03T08:53:00.308Z,6.44
2023-04-03T08:54:23.470Z,6.75
2023-04-03T08:55:29.091Z,7.36
2023-04-03T08:56:32.492Z,8.29
2023-04-03T08:57:43.556Z,8.75
2023-04-03T08:59:01.702Z,8.10
2023-04-03T09:00:17.705Z,9.02
2023-04-03T09:01:37.637Z,8.94
2023-04-03T09:02:47.329Z,9.05
2023-04-03T09:03:49.749Z,8.90
2023-04-03T09:04:51.136Z,8.78
2023-04-03T09:05:58.104Z,8.58
2023-04-03T09:07:08.261Z,8.53
2023-04-03T09:08:27.162Z,7.87
2023-04-03T09:09:42.051Z,7.73
2023-04-03T09:10:43.970Z,8.20
2023-04-03T09:11:54.778Z,8.39
2023-04-03T09:13:18.966Z,8.54
2023-04-03T09:14:29.762Z,8.13
2023-04-03T09:15:38.562Z,7.99
2023-04-03T09:16:59.505Z,7.64
2023-04-03T09:18:23.792Z,7.49
2023-04-03T09:19:31.261Z,7.24
2023-04-03T09:20:47.904Z,8.07
2023-04-03T09:21:49.273Z,8.40
2023-04-03T09:22:53.001Z,8.73
2023-04-03T09:23:59.041Z,8.41
2023-04-03T09:25:14.172Z,8.13
2023-04-03T09:26:20.638Z,7.37
2023-04-03T09:27:22.286Z,7.37
2023-04-03T09:28:23.801Z,7.43
2023-04-03T09:29:25.688Z,7.57
2023-04-03T09:30:28.419Z,7.51
2023-04-03T09:31:43.427Z,7.31
2023-04-03T09:32:51.379Z,6.90
2023-04-03T09:34:03.296Z,7.09
2023-04-03T09:35:23.429Z,7.04
2023-04-03T09:36:47.292Z,7.06
2023-04-03T09:37:52.464Z,7.22
2023-04-03T09:39:10.641Z,7.20
2023-04-03T09:40:27.140Z,7.08
2023-04-03T09:41:29.287Z,6.75
2023-04-03T09:42:32.150Z,6.88
2023-04-03T09:43:36.789Z,6.99
2023-04-03T09:44:39.640Z,7.43
2023-04-03T09:45:41.538Z,7.56
2023-04-03T09:46:43.799Z,7.43
2023-04-03T09:47:45.868Z,7.33
2023-04-03T09:49:07.471Z,7.11
2023-04-03T09:50:22.874Z,7.09
2023-04-03T09:51:29.113Z,6.98
2023-04-03T09:52:32.558Z,6.75
2023-04-03T09:53:45.102Z,6.32
2023-04-03T09:54:46.521Z,6.60
2023-04-03T09:55:48.063Z,6.58
2023-04-03T09:56:54.853Z,6.52
2023-04-03T09:58:01.556Z,6.63
2023-04-03T09:59:02.904Z,6.66
2023-04-03T10:00:05.948Z,6.43
2023-04-03T10:01:23.740Z,6.01
2023-04-03T10:02:40.014Z,6.07
2023-04-03T10:03:47.505Z,5.81
2023-04-03T10:04:58.680Z,5.89
2023-04-03T10:06:24.864Z,6.16
2023-04-03T10:07:36.713Z,6.20
2023-04-03T10:08:38.267Z,5.81
2023-04-03T10:09:43.346Z,5.79
2023-04-03T10:11:05.840Z,5.96
2023-04-03T10:12:13.396Z,6.16
2023-04-03T10:13:22.096Z,6.13
2023-04-03T10:14:23.741Z,5.82
2023-04-03T10:15:29.445Z,5.61
2023-04-03T10:16:34.847Z,5.10
2023-04-03T10:17:56.622Z,5.40
2023-04-03T10:19:08.056Z,6.01
2023-04-03T10:20:36.694Z,6.28
2023-04-03T10:21:44.143Z,6.28
2023-04-03T10:23:21.128Z,6.25
2023-04-03T10:24:29.152Z,5.63
2023-04-03T10:25:42.976Z,5.45
2023-04-03T10:27:01.981Z,5.79
2023-04-03T10:28:23.612Z,5.48
2023-04-03T10:29:43.672Z,5.78
2023-04-03T10:30:57.199Z,5.75
2023-04-03T10:32:35.741Z,6.02
2023-04-03T10:33:49.715Z,6.03
2023-04-03T10:35:05.195Z,6.15
2023-04-03T10:36:16.348Z,5.95
2023-04-03T10:37:37.710Z,6.10
2023-04-03T10:39:06.785Z,6.01
2023-04-03T10:40:32.240Z,6.09
2023-04-03T10:42:16.511Z,6.23
2023-04-03T10:43:30.307Z,6.13
2023-04-03T10:44:54.774Z,6.36
2023-04-03T10:46:20.243Z,6.56
2023-04-03T10:47:32.044Z,6.37
2023-04-03T10:48:53.845Z,6.39
2023-04-03T10:50:22.850Z,6.45
2023-04-03T10:51:32.698Z,6.36
2023-04-03T10:52:43.506Z,6.24
2023-04-03T10:54:11.673Z,6.29
2023-04-03T10:55:35.029Z,6.18
2023-04-03T10:56:55.281Z,6.34
2023-04-03T10:58:05.082Z,6.18
2023-04-03T10:59:18.248Z,6.11
2023-04-03T11:00:23.894Z,6.26
2023-04-03T11:01:33.870Z,6.10
2023-04-03T11:02:53.772Z,5.93
2023-04-03T11:03:58.395Z,5.90
2023-04-03T11:05:15.768Z,5.94
2023-04-03T11:06:20.525Z,5.99
2023-04-03T11:07:29.099Z,6.10
2023-04-03T11:08:40.741Z,5.94
2023-04-03T11:09:45.110Z,6.09
2023-04-03T11:10:50.623Z,6.20
2023-04-03T11:11:58.361Z,6.23
2023-04-03T11:13:09.372Z,6.26
2023-04-03T11:14:30.006Z,6.17
2023-04-03T11:15:34.214Z,5.97
2023-04-03T11:16:47.389Z,5.99
2023-04-03T11:18:09.711Z,5.68
2023-04-03T11:19:22.668Z,5.87
2023-04-03T11:20:34.266Z,6.02
2023-04-03T11:21:42.013Z,5.87
2023-04-03T11:22:46.373Z,5.85
2023-04-03T11:23:50.257Z,5.81
2023-04-03T11:25:03.555Z,5.72
2023-04-03T11:26:12.406Z,5.67
2023-04-03T12:41:45.985Z,5.92
2023-04-03T12:43:05.253Z,6.21
2023-04-03T12:44:16.810Z,6.26
2023-04-03T12:45:22.182Z,6.28
2023-04-03T12:46:25.170Z,6.40
2023-04-03T12:47:39.191Z,6.60
2023-04-03T12:48:56.277Z,6.58
2023-04-03T12:49:59.389Z,6.65
2023-04-03T12:51:01.799Z,6.88
2023-04-03T12:52:07.069Z,6.98
2023-04-03T12:53:16.324Z,7.19
2023-04-03T12:54:23.665Z,7.16
2023-04-03T12:55:25.384Z,7.19
2023-04-03T12:56:31.392Z,7.30
2023-04-03T12:57:34.427Z,7.41
2023-04-03T12:58:36.225Z,7.50
2023-04-03T12:59:39.083Z,7.50
2023-04-03T13:00:40.680Z,7.70
2023-04-03T13:01:42.073Z,7.35
2023-04-03T13:02:46.149Z,7.82
2023-04-03T13:03:57.840Z,8.17
2023-04-03T13:05:05.833Z,7.99
2023-04-03T13:06:07.514Z,7.70
2023-04-03T13:07:20.866Z,7.87
2023-04-03T13:08:22.526Z,7.76
2023-04-03T13:09:27.302Z,8.01
2023-04-03T13:10:28.680Z,8.96
2023-04-03T13:11:41.247Z,8.96
2023-04-03T13:12:55.208Z,8.38
2023-04-03T13:14:06.068Z,8.33
2023-04-03T13:15:21.715Z,7.79
2023-04-03T13:16:23.485Z,8.04
2023-04-03T13:17:26.091Z,7.96
2023-04-03T13:18:33.148Z,7.72
2023-04-03T13:19:34.556Z,7.50
2023-04-03T13:20:38.250Z,7.45
2023-04-03T13:21:39.822Z,7.57
2023-04-03T13:22:52.065Z,7.16
2023-04-03T13:24:11.543Z,6.35
2023-04-03T13:25:18.140Z,7.01
2023-04-03T13:26:22.155Z,7.28
2023-04-03T13:27:24.679Z,6.97
2023-04-03T13:28:26.207Z,7.25
2023-04-03T13:29:34.220Z,7.30
2023-04-03T13:30:38.790Z,6.83
2023-04-03T13:31:41.492Z,7.17
2023-04-03T13:32:44.736Z,8.13
2023-04-03T13:33:57.039Z,8.49
2023-04-03T13:35:08.189Z,8.35
2023-04-03T13:36:19.280Z,8.11
2023-04-03T13:37:27.029Z,7.82
2023-04-03T13:38:34.932Z,7.70
2023-04-03T13:39:39.053Z,7.25
2023-04-03T13:40:58.016Z,7.45
2023-04-03T13:42:02.821Z,7.18
2023-04-03T13:43:19.392Z,7.30
2023-04-03T13:44:23.942Z,7.34
2023-04-03T13:45:29.557Z,7.21
2023-04-03T13:46:32.064Z,7.13
2023-04-03T13:47:40.894Z,6.96
2023-04-03T13:48:53.454Z,6.72
2023-04-03T13:50:11.970Z,6.79
2023-04-03T13:51:13.289Z,6.75
2023-04-03T13:52:40.885Z,6.41
2023-04-03T13:53:57.989Z,6.24
2023-04-03T14:09:18.580Z,6.95
2023-04-03T14:10:20.456Z,6.77
2023-04-03T14:11:25.143Z,6.77
2023-04-03T14:12:35.145Z,7.09
2023-04-03T14:13:36.551Z,6.94
2023-04-03T14:14:39.344Z,7.09
2023-04-03T14:15:41.239Z,7.19
2023-04-03T14:16:49.197Z,7.27
2023-04-03T14:17:52.537Z,6.97
2023-04-03T14:18:54.491Z,6.70
2023-04-03T14:19:57.642Z,6.84
2023-04-03T14:20:59.115Z,7.08
2023-04-03T14:22:01.846Z,7.14
2023-04-03T14:23:03.789Z,7.08
2023-04-03T14:24:05.231Z,6.76
2023-04-03T14:25:07.064Z,6.94
2023-04-03T14:26:20.123Z,6.96
2023-04-03T14:27:26.377Z,7.12
2023-04-03T14:28:28.013Z,6.97
2023-04-03T14:29:29.400Z,6.83
2023-04-03T14:30:33.642Z,6.69
2023-04-03T14:31:35.218Z,6.83
2023-04-03T14:32:36.765Z,6.90
2023-04-03T15:02:14.920Z,6.40
2023-04-03T15:03:22.968Z,6.43
2023-04-03T15:04:24.753Z,6.60
2023-04-03T15:05:26.293Z,6.54
2023-04-03T15:09:01.063Z,6.74
2023-04-03T15:10:22.066Z,6.77
2023-04-03T15:11:23.512Z,6.87
2023-04-03T15:12:26.557Z,6.79
2023-04-03T15:13:28.053Z,6.92
2023-04-03T15:14:37.073Z,6.90
2023-04-03T15:51:50.609Z,5.94
2023-04-03T15:52:55.357Z,6.62
2023-04-03T15:53:56.941Z,6.74
2023-04-03T15:54:58.474Z,6.84
2023-04-03T15:55:59.859Z,6.78
2023-04-03T15:57:01.386Z,7.44
2023-04-03T15:58:03.571Z,7.73
2023-04-03T15:59:05.202Z,8.01
2023-04-03T16:00:07.966Z,8.43
2023-04-03T16:01:12.334Z,8.46
2023-04-03T16:02:14.260Z,7.95
2023-04-03T16:03:19.180Z,7.84
2023-04-03T16:04:22.183Z,7.49
2023-04-03T16:05:24.224Z,7.26
2023-04-03T16:06:26.956Z,7.37
